Time;durP1;ratioP1;P1;durP2;ratioP2;P2;SDS_P1;SDS_P2;PMS_P1;PMS_P2;Temp;Humidity;BMP_temperature;BMP_pressure;BME280_temperature;BME280_humidity;BME280_pressure;Samples;Min_cycle;Max_cycle;Signal;HPM_P1;HPM_P2
2023/12/03 00:01:10;;;;;;;24.63;13.93;;;6.20;99.90;;;;;;10151380;29;20257;-78
2023/12/03 00:06:13;;;;;;;12.10;7.67;;;5.90;99.90;;;;;;10150135;29;20292;-78
2023/12/03 00:11:15;;;;;;;29.03;14.50;;;5.70;99.90;;;;;;10145980;29;20290;-78
2023/12/03 00:16:18;;;;;;;16.57;7.73;;;6.50;99.90;;;;;;10139242;29;20271;-79
2023/12/03 00:21:20;;;;;;;13.80;7.00;;;7.70;99.90;;;;;;10147757;29;20309;-79
2023/12/03 00:26:23;;;;;;;14.37;8.43;;;8.00;99.90;;;;;;10157724;29;20232;-78
2023/12/03 00:31:26;;;;;;;23.80;10.23;;;7.90;99.90;;;;;;10131929;29;20303;-78
2023/12/03 00:36:29;;;;;;;12.37;6.57;;;7.50;99.90;;;;;;10133589;29;20287;-78
2023/12/03 00:41:31;;;;;;;22.17;11.23;;;7.00;99.90;;;;;;10130285;29;20245;-78
2023/12/03 00:46:34;;;;;;;17.17;9.03;;;6.60;99.90;;;;;;10132572;29;20241;-78
2023/12/03 00:51:36;;;;;;;28.30;13.10;;;7.00;99.90;;;;;;10132389;29;20246;-79
2023/12/03 00:56:39;;;;;;;36.63;17.30;;;7.40;99.90;;;;;;10130075;29;20672;-79
2023/12/03 01:01:41;;;;;;;37.87;17.20;;;7.20;99.90;;;;;;10112728;29;20250;-78
2023/12/03 01:06:44;;;;;;;38.67;17.83;;;7.50;99.90;;;;;;10131486;29;20646;-78
2023/12/03 01:11:46;;;;;;;33.40;16.23;;;7.00;99.90;;;;;;10131136;29;20297;-78
2023/12/03 01:16:49;;;;;;;20.17;9.13;;;6.30;99.90;;;;;;10130541;29;20956;-78
2023/12/03 01:21:51;;;;;;;39.90;17.00;;;7.10;99.90;;;;;;10131110;29;20247;-78
2023/12/03 01:26:54;;;;;;;28.00;14.87;;;7.30;99.90;;;;;;10129421;29;20253;-78
2023/12/03 01:31:57;;;;;;;11.63;6.30;;;6.90;99.90;;;;;;10129536;29;20430;-78
2023/12/03 01:37:00;;;;;;;35.03;18.77;;;6.50;99.90;;;;;;10130804;29;20235;-79
2023/12/03 01:42:03;;;;;;;21.23;9.57;;;6.50;99.90;;;;;;10130012;29;20315;-78
2023/12/03 01:47:07;;;;;;;20.90;10.73;;;6.90;99.90;;;;;;10130045;29;20237;-78
2023/12/03 01:52:11;;;;;;;26.13;13.90;;;7.00;99.90;;;;;;10127790;29;20701;-79
2023/12/03 01:57:14;;;;;;;21.13;12.47;;;7.20;99.90;;;;;;10128935;29;20309;-78
2023/12/03 02:02:17;;;;;;;23.87;12.33;;;6.90;99.90;;;;;;10129907;29;20604;-79
2023/12/03 02:07:20;;;;;;;32.47;15.47;;;6.50;99.90;;;;;;10129917;29;20303;-78
2023/12/03 02:12:22;;;;;;;19.80;11.93;;;6.60;99.90;;;;;;10107853;29;20310;-78
2023/12/03 02:17:25;;;;;;;18.73;9.53;;;6.60;99.90;;;;;;10125929;29;20698;-78
2023/12/03 02:22:27;;;;;;;21.20;12.13;;;6.50;99.90;;;;;;10123193;29;20242;-78
2023/12/03 02:27:30;;;;;;;18.53;9.90;;;6.00;99.90;;;;;;10103337;29;20274;-79
2023/12/03 02:32:32;;;;;;;18.53;10.60;;;5.70;99.90;;;;;;10128668;29;20294;-78
2023/12/03 02:37:35;;;;;;;20.73;11.33;;;5.60;99.90;;;;;;10122144;29;20241;-79
2023/12/03 02:42:37;;;;;;;21.53;12.00;;;5.50;99.90;;;;;;10118383;29;20241;-79
2023/12/03 02:47:40;;;;;;;19.50;10.80;;;6.20;99.90;;;;;;10128701;29;20374;-79
2023/12/03 02:52:42;;;;;;;20.87;12.03;;;6.00;99.90;;;;;;10127954;29;20292;-78
2023/12/03 02:57:45;;;;;;;15.27;8.20;;;5.80;99.90;;;;;;10120956;29;20247;-78
2023/12/03 03:02:47;;;;;;;20.87;12.20;;;5.70;99.90;;;;;;10124782;29;20296;-78
2023/12/03 03:07:50;;;;;;;18.47;11.23;;;5.70;99.90;;;;;;10128281;29;20777;-78
2023/12/03 03:12:52;;;;;;;16.23;9.97;;;5.70;99.90;;;;;;10119839;29;20260;-78
2023/12/03 03:17:55;;;;;;;18.77;9.60;;;6.00;99.90;;;;;;10135757;29;20232;-78
2023/12/03 03:22:57;;;;;;;15.13;9.20;;;6.30;99.90;;;;;;10134277;29;20768;-78
2023/12/03 03:28:00;;;;;;;12.80;7.90;;;6.20;99.90;;;;;;10135276;29;20272;-78
2023/12/03 03:33:02;;;;;;;11.47;6.17;;;5.80;99.90;;;;;;10114693;29;20255;-78
2023/12/03 03:38:05;;;;;;;14.27;8.07;;;6.30;99.90;;;;;;10135320;29;20255;-79
2023/12/03 03:43:07;;;;;;;11.87;7.77;;;6.20;99.90;;;;;;10135259;29;20311;-78
2023/12/03 03:48:10;;;;;;;14.57;9.87;;;6.10;99.90;;;;;;10132979;29;20208;-78
2023/12/03 03:53:13;;;;;;;9.60;6.47;;;6.00;99.90;;;;;;10133006;29;20249;-78
2023/12/03 03:58:15;;;;;;;12.30;7.87;;;5.40;99.90;;;;;;10133373;29;20224;-78
2023/12/03 04:03:17;;;;;;;10.53;7.67;;;5.40;99.90;;;;;;10132530;29;20289;-78
2023/12/03 04:08:20;;;;;;;13.90;8.00;;;5.90;99.90;;;;;;10133488;29;20265;-78
2023/12/03 04:13:24;;;;;;;10.07;7.27;;;6.10;99.90;;;;;;10132082;29;20266;-78
2023/12/03 04:18:27;;;;;;;10.60;5.43;;;6.40;99.90;;;;;;10125785;29;20237;-78
2023/12/03 04:23:30;;;;;;;8.97;6.80;;;6.50;99.90;;;;;;10131463;29;20657;-78
2023/12/03 04:28:32;;;;;;;11.63;7.57;;;6.50;99.90;;;;;;10133632;29;20260;-79
2023/12/03 04:33:36;;;;;;;9.83;7.77;;;6.10;99.90;;;;;;10133515;29;20257;-78
2023/12/03 04:38:39;;;;;;;7.87;5.97;;;6.10;99.90;;;;;;10120618;29;20301;-78
2023/12/03 04:43:41;;;;;;;10.40;6.90;;;6.40;99.90;;;;;;10112081;29;20251;-78
2023/12/03 04:48:44;;;;;;;11.13;7.93;;;5.90;99.90;;;;;;10132499;29;20235;-78
2023/12/03 04:53:46;;;;;;;8.53;6.50;;;6.20;99.90;;;;;;10131678;29;20246;-78
2023/12/03 04:58:49;;;;;;;7.40;6.13;;;6.10;99.90;;;;;;10129879;29;20303;-78
2023/12/03 05:03:51;;;;;;;8.23;7.43;;;6.60;99.90;;;;;;10131516;29;20302;-78
2023/12/03 05:08:53;;;;;;;9.20;5.93;;;6.70;99.90;;;;;;10131502;29;20291;-78
2023/12/03 05:13:56;;;;;;;6.93;5.03;;;6.60;99.90;;;;;;10128866;29;20267;-78
2023/12/03 05:18:58;;;;;;;6.27;4.67;;;7.30;99.90;;;;;;10130680;29;20625;-78
2023/12/03 05:24:01;;;;;;;7.10;6.00;;;6.80;99.90;;;;;;10130880;29;20246;-78
2023/12/03 05:29:04;;;;;;;7.27;4.20;;;6.80;99.90;;;;;;10130330;29;20271;-78
2023/12/03 05:34:06;;;;;;;5.60;4.80;;;6.70;99.90;;;;;;10129998;29;20248;-78
2023/12/03 05:39:09;;;;;;;6.80;4.67;;;7.10;99.90;;;;;;10130298;29;20302;-78
2023/12/03 05:44:12;;;;;;;6.10;4.33;;;7.30;99.90;;;;;;10130242;29;20242;-78
2023/12/03 05:49:14;;;;;;;5.10;3.63;;;7.50;99.90;;;;;;10117760;29;20247;-78
2023/12/03 05:54:17;;;;;;;6.93;4.13;;;7.50;99.90;;;;;;10126677;29;20301;-78
2023/12/03 05:59:22;;;;;;;6.47;4.77;;;7.30;99.90;;;;;;10130155;29;20263;-78
2023/12/03 06:04:25;;;;;;;6.90;4.80;;;6.90;99.90;;;;;;10129285;29;20237;-78
2023/12/03 06:09:27;;;;;;;4.40;3.03;;;6.80;99.90;;;;;;10130207;29;20264;-79
2023/12/03 06:14:31;;;;;;;6.63;4.77;;;7.20;99.90;;;;;;10127722;29;20315;-78
2023/12/03 06:19:33;;;;;;;8.60;5.37;;;6.90;99.90;;;;;;10114383;29;20294;-78
2023/12/03 06:24:36;;;;;;;5.03;3.67;;;6.70;99.90;;;;;;10127956;29;20245;-78
2023/12/03 06:29:39;;;;;;;7.90;5.23;;;6.70;99.90;;;;;;10128690;29;20660;-78
2023/12/03 06:34:41;;;;;;;4.07;2.00;;;6.90;99.90;;;;;;10128826;29;20308;-78
2023/12/03 06:39:44;;;;;;;7.10;5.97;;;7.50;99.90;;;;;;10112521;29;20238;-78
2023/12/03 06:44:46;;;;;;;7.67;5.40;;;7.20;99.90;;;;;;10128724;29;20297;-78
2023/12/03 06:49:49;;;;;;;7.07;4.80;;;6.50;99.90;;;;;;10127310;29;20312;-78
2023/12/03 06:54:51;;;;;;;7.20;5.60;;;6.80;99.90;;;;;;10128503;29;20289;-78
2023/12/03 06:59:53;;;;;;;6.13;4.53;;;6.40;99.90;;;;;;10141541;29;20694;-78
2023/12/03 07:04:56;;;;;;;4.63;3.73;;;6.90;99.90;;;;;;10128154;29;20231;-78
2023/12/03 07:09:58;;;;;;;6.80;3.83;;;7.80;99.90;;;;;;10127778;29;20296;-78
2023/12/03 07:15:01;;;;;;;9.13;5.23;;;7.50;99.90;;;;;;10114641;29;20288;-78
2023/12/03 07:20:04;;;;;;;2.93;1.63;;;7.80;99.90;;;;;;10126287;29;20758;-78
2023/12/03 07:25:07;;;;;;;7.20;4.57;;;8.60;99.90;;;;;;10127730;29;20289;-78
2023/12/03 07:30:10;;;;;;;7.27;4.13;;;8.30;99.90;;;;;;10127252;29;20240;-78
2023/12/03 07:35:13;;;;;;;11.40;6.03;;;8.10;99.90;;;;;;10113315;29;20323;-78
2023/12/03 07:40:15;;;;;;;5.30;3.27;;;7.80;99.90;;;;;;10115183;29;20241;-78
2023/12/03 07:45:18;;;;;;;15.30;8.23;;;7.70;99.90;;;;;;10127216;29;20300;-78
2023/12/03 07:50:23;;;;;;;9.13;4.83;;;7.80;99.90;;;;;;10116533;29;20285;-79
2023/12/03 07:55:26;;;;;;;9.83;6.17;;;7.80;99.90;;;;;;10119972;29;20299;-78
2023/12/03 08:00:28;;;;;;;4.77;3.40;;;7.50;99.90;;;;;;10124476;29;20234;-78
2023/12/03 08:05:31;;;;;;;5.63;2.47;;;7.50;99.90;;;;;;10120656;29;20234;-78
2023/12/03 08:10:34;;;;;;;9.60;6.97;;;8.40;99.90;;;;;;10133048;29;20234;-78
2023/12/03 08:15:36;;;;;;;9.73;5.00;;;8.60;99.90;;;;;;10114218;29;20296;-78
2023/12/03 08:20:39;;;;;;;8.10;4.83;;;8.30;99.90;;;;;;10094485;29;20240;-78
2023/12/03 08:25:41;;;;;;;11.67;6.87;;;8.20;99.90;;;;;;10095625;29;20257;-78
2023/12/03 08:30:44;;;;;;;11.10;6.13;;;7.90;99.90;;;;;;10101040;29;20302;-78
2023/12/03 08:35:46;;;;;;;3.07;1.87;;;8.00;99.90;;;;;;10115712;29;20249;-79
2023/12/03 08:40:49;;;;;;;6.73;4.37;;;7.90;99.90;;;;;;10133649;29;20790;-78
2023/12/03 08:45:51;;;;;;;13.90;7.60;;;7.40;99.90;;;;;;10129780;29;20210;-78
2023/12/03 08:50:54;;;;;;;14.07;8.43;;;7.10;99.90;;;;;;10094877;29;20246;-78
2023/12/03 08:55:59;;;;;;;9.80;5.97;;;7.50;99.90;;;;;;10115237;29;20260;-78
2023/12/03 09:01:01;;;;;;;6.43;3.07;;;7.60;99.90;;;;;;10130869;29;20229;-78
2023/12/03 09:06:04;;;;;;;7.27;3.67;;;7.80;99.90;;;;;;10139774;29;20681;-79
2023/12/03 09:11:07;;;;;;;8.93;4.13;;;8.00;99.90;;;;;;10105756;29;20244;-78
2023/12/03 09:16:09;;;;;;;10.23;6.90;;;8.40;99.90;;;;;;10093174;29;20261;-78
2023/12/03 09:21:12;;;;;;;4.13;2.87;;;8.50;99.90;;;;;;10139249;29;20236;-78
2023/12/03 09:26:16;;;;;;;7.40;4.27;;;8.50;99.90;;;;;;10129805;29;20263;-78
2023/12/03 09:31:18;;;;;;;7.93;5.37;;;6.60;99.90;;;;;;10129803;29;20685;-78
2023/12/03 09:36:21;;;;;;;19.00;11.27;;;7.80;99.90;;;;;;10130554;29;20268;-78
2023/12/03 09:41:24;;;;;;;5.13;2.63;;;6.50;99.90;;;;;;10130381;29;20658;-78
2023/12/03 09:46:31;;;;;;;9.60;5.57;;;6.10;99.90;;;;;;10123097;29;20697;-78
2023/12/03 09:51:39;;;;;;;9.13;6.07;;;7.70;99.90;;;;;;10129106;29;20291;-78
2023/12/03 09:56:44;;;;;;;10.90;6.23;;;7.20;99.90;;;;;;10128949;29;20282;-78
2023/12/03 10:01:47;;;;;;;7.30;5.23;;;8.30;99.90;;;;;;10129969;29;20230;-78
2023/12/03 10:07:00;;;;;;;11.30;6.73;;;9.10;99.90;;;;;;10128699;29;20238;-79
2023/12/03 10:12:05;;;;;;;5.33;2.47;;;8.90;99.90;;;;;;10129590;29;20302;-78
2023/12/03 10:17:08;;;;;;;4.00;2.63;;;9.10;99.90;;;;;;10129839;29;20281;-78
2023/12/03 10:22:13;;;;;;;6.13;3.13;;;9.60;99.90;;;;;;10128742;29;20232;-78
2023/12/03 10:27:16;;;;;;;7.83;5.20;;;9.40;99.90;;;;;;10129014;29;20368;-79
2023/12/03 10:32:19;;;;;;;10.23;7.47;;;9.20;99.90;;;;;;10129651;29;20699;-77
2023/12/03 10:37:22;;;;;;;7.83;4.97;;;9.50;99.90;;;;;;10129025;29;20267;-78
2023/12/03 10:42:24;;;;;;;7.90;5.30;;;9.60;99.90;;;;;;9786116;29;9999705;-78
2023/12/03 10:47:27;;;;;;;3.80;2.20;;;9.10;99.90;;;;;;10125377;29;20330;-79
2023/12/03 10:52:31;;;;;;;8.00;5.40;;;9.50;99.90;;;;;;10099892;29;20247;-78
2023/12/03 10:57:39;;;;;;;5.90;4.07;;;9.60;99.90;;;;;;10109853;29;20256;-78
2023/12/03 11:02:54;;;;;;;5.57;4.03;;;9.60;99.90;;;;;;10126244;29;20284;-78
2023/12/03 11:08:02;;;;;;;5.53;3.07;;;10.30;99.90;;;;;;10112717;29;20307;-78
2023/12/03 11:13:05;;;;;;;8.93;5.80;;;10.10;99.90;;;;;;10110766;29;20248;-78
2023/12/03 11:18:09;;;;;;;2.63;2.03;;;10.50;99.90;;;;;;10125930;29;20747;-78
2023/12/03 11:23:44;;;;;;;9.33;5.80;;;10.10;99.90;;;;;;10126621;29;20295;-78
2023/12/03 11:28:58;;;;;;;4.13;2.63;;;10.10;99.90;;;;;;10109260;29;20648;-79
2023/12/03 11:34:04;;;;;;;9.37;5.23;;;9.70;99.90;;;;;;10112505;29;20297;-78
2023/12/03 11:39:07;;;;;;;3.60;2.60;;;9.90;99.90;;;;;;10137460;29;20273;-78
2023/12/03 11:44:20;;;;;;;1.20;1.10;;;9.90;99.90;;;;;;10116777;29;20297;-79
2023/12/03 11:49:23;;;;;;;5.33;4.23;;;9.50;99.90;;;;;;10129648;29;20228;-77
2023/12/03 11:54:53;;;;;;;9.70;4.50;;;9.30;99.90;;;;;;10102593;29;20304;-78
2023/12/03 11:59:56;;;;;;;11.33;4.80;;;8.80;99.90;;;;;;10094200;29;20272;-78
2023/12/03 12:05:03;;;;;;;8.10;4.87;;;8.10;99.90;;;;;;10094362;29;20313;-78
2023/12/03 12:10:06;;;;;;;9.03;4.43;;;8.10;99.90;;;;;;10095617;29;20316;-78
2023/12/03 12:15:12;;;;;;;4.07;2.70;;;8.00;99.90;;;;;;10095083;29;20664;-78
2023/12/03 12:20:25;;;;;;;5.67;3.40;;;8.60;99.90;;;;;;10094227;29;20257;-78
2023/12/03 12:25:29;;;;;;;1.90;1.30;;;9.20;99.90;;;;;;10093182;29;20642;-79
2023/12/03 12:30:33;;;;;;;7.83;5.50;;;9.30;99.90;;;;;;10093647;29;20305;-79
2023/12/03 12:35:37;;;;;;;6.37;4.23;;;8.80;99.90;;;;;;10093620;29;20268;-78
2023/12/03 12:40:54;;;;;;;4.90;4.03;;;9.20;99.90;;;;;;10094198;29;20300;-79
2023/12/03 12:46:09;;;;;;;7.27;3.40;;;9.60;99.90;;;;;;10093935;29;20285;-78
2023/12/03 12:51:23;;;;;;;5.80;3.43;;;9.50;99.90;;;;;;10093767;29;20301;-78
2023/12/03 12:56:31;;;;;;;4.90;2.87;;;9.20;99.90;;;;;;10094078;29;20297;-78
2023/12/03 13:01:33;;;;;;;5.67;4.10;;;9.70;99.90;;;;;;10093720;29;20246;-78
2023/12/03 13:06:36;;;;;;;6.03;3.63;;;9.40;99.90;;;;;;10093381;29;21000;-79
2023/12/03 13:11:38;;;;;;;5.10;4.13;;;9.50;99.90;;;;;;10093023;29;20252;-79
2023/12/03 13:16:41;;;;;;;3.83;3.07;;;9.50;99.90;;;;;;10093137;29;20260;-79
2023/12/03 13:21:44;;;;;;;3.10;1.73;;;9.70;99.90;;;;;;10091010;29;20308;-78
2023/12/03 13:26:47;;;;;;;4.50;3.60;;;9.90;99.90;;;;;;10092364;29;20344;-78
2023/12/03 13:31:50;;;;;;;10.73;6.97;;;10.00;99.90;;;;;;10092867;29;20282;-78
2023/12/03 13:36:52;;;;;;;7.07;4.07;;;9.00;99.90;;;;;;10092532;29;20727;-78
2023/12/03 13:41:55;;;;;;;6.70;4.00;;;8.80;99.90;;;;;;10106215;29;20654;-78
2023/12/03 13:46:58;;;;;;;5.57;4.57;;;9.10;99.90;;;;;;10092007;29;20301;-78
2023/12/03 13:52:00;;;;;;;3.70;2.70;;;9.10;99.90;;;;;;10091495;29;20604;-78
2023/12/03 13:57:03;;;;;;;7.23;4.67;;;9.40;99.90;;;;;;10090709;29;20411;-78
2023/12/03 14:02:07;;;;;;;4.77;3.77;;;9.50;99.90;;;;;;10090249;29;20253;-78
2023/12/03 14:07:09;;;;;;;4.77;3.70;;;9.50;99.90;;;;;;10090098;29;20299;-78
2023/12/03 14:12:12;;;;;;;5.77;4.63;;;9.20;99.90;;;;;;10104814;29;20301;-78
2023/12/03 14:17:15;;;;;;;4.93;2.83;;;8.40;99.90;;;;;;10104824;29;20337;-78
2023/12/03 14:22:17;;;;;;;4.33;2.63;;;9.20;99.90;;;;;;10091250;29;20246;-78
2023/12/03 14:27:20;;;;;;;8.00;4.83;;;9.30;99.90;;;;;;10090610;29;21044;-78
2023/12/03 14:32:23;;;;;;;8.90;5.57;;;9.10;99.90;;;;;;10097332;29;20272;-80
2023/12/03 14:37:27;;;;;;;10.30;6.43;;;9.40;99.90;;;;;;10095288;29;20663;-80
2023/12/03 14:42:29;;;;;;;8.77;5.77;;;9.40;99.90;;;;;;10108583;29;20236;-80
2023/12/03 14:47:34;;;;;;;8.80;7.00;;;8.80;99.90;;;;;;10111725;29;20233;-80
2023/12/03 14:52:40;;;;;;;10.90;8.23;;;5.70;99.90;;;;;;10090354;29;20244;-81
2023/12/03 14:57:42;;;;;;;5.87;3.50;;;3.10;99.90;;;;;;10089765;29;20257;-80
2023/12/03 15:02:45;;;;;;;8.57;5.67;;;6.20;99.90;;;;;;10098323;29;20315;-81
2023/12/03 15:07:49;;;;;;;11.17;6.93;;;7.20;99.90;;;;;;10123984;29;20272;-80
2023/12/03 15:12:52;;;;;;;11.17;7.10;;;8.20;99.90;;;;;;10136211;29;20331;-81
2023/12/03 15:17:54;;;;;;;5.87;3.97;;;8.50;99.90;;;;;;10113166;29;20241;-81
2023/12/03 15:22:58;;;;;;;8.00;5.97;;;9.20;99.90;;;;;;10134010;29;20255;-81
2023/12/03 15:28:00;;;;;;;7.07;4.17;;;9.30;99.90;;;;;;10120203;29;20264;-81
2023/12/03 15:33:03;;;;;;;7.30;4.93;;;9.20;99.90;;;;;;10124239;29;20363;-81
2023/12/03 15:38:06;;;;;;;4.87;3.83;;;9.60;99.90;;;;;;10128984;29;20263;-81
2023/12/03 15:43:08;;;;;;;11.33;5.77;;;10.20;99.90;;;;;;10114663;29;20634;-81
2023/12/03 15:48:14;;;;;;;9.07;4.90;;;10.20;99.90;;;;;;10130752;29;20774;-81
2023/12/03 15:53:17;;;;;;;5.20;3.67;;;10.70;99.90;;;;;;10134504;29;20302;-81
2023/12/03 15:58:21;;;;;;;11.03;6.40;;;;;;;;;;10133839;29;20789;-81
2023/12/03 16:03:24;;;;;;;9.63;6.50;;;10.90;99.90;;;;;;10115986;29;20709;-81
2023/12/03 16:08:26;;;;;;;9.53;5.77;;;10.30;99.90;;;;;;10133084;29;20250;-81
2023/12/03 16:13:30;;;;;;;5.83;3.60;;;9.80;99.90;;;;;;10117675;29;20244;-81
2023/12/03 16:18:33;;;;;;;8.87;5.90;;;9.80;99.90;;;;;;10129443;29;20978;-81
2023/12/03 16:23:35;;;;;;;6.37;3.67;;;9.90;99.90;;;;;;10102403;29;20228;-81
2023/12/03 16:28:38;;;;;;;8.63;3.20;;;10.20;99.90;;;;;;10110195;29;20264;-81
2023/12/03 16:33:40;;;;;;;4.77;3.80;;;10.70;99.90;;;;;;10112723;29;20240;-81
2023/12/03 16:38:43;;;;;;;7.60;4.47;;;10.50;99.90;;;;;;10098623;29;20294;-81
2023/12/03 16:43:45;;;;;;;7.90;5.13;;;10.00;99.90;;;;;;10109603;29;20273;-82
2023/12/03 16:48:53;;;;;;;6.50;5.30;;;9.90;99.90;;;;;;10123956;29;20647;-82
2023/12/03 16:53:56;;;;;;;2.30;1.30;;;10.60;99.90;;;;;;10133508;29;20247;-82
2023/12/03 16:58:58;;;;;;;10.40;7.00;;;10.70;99.90;;;;;;10131174;29;20266;-82
2023/12/03 17:04:01;;;;;;;9.27;5.60;;;10.40;99.90;;;;;;10105952;29;20224;-81
2023/12/03 17:09:04;;;;;;;18.57;14.30;;;9.90;99.90;;;;;;10123288;29;20243;-82
2023/12/03 17:14:07;;;;;;;19.27;13.93;;;4.00;99.90;;;;;;10126605;29;20248;-81
2023/12/03 17:19:10;;;;;;;3.47;2.27;;;3.00;99.90;;;;;;10116481;29;20315;-81
2023/12/03 17:24:13;;;;;;;9.73;6.43;;;4.90;99.90;;;;;;10098973;29;20237;-80
2023/12/03 17:29:15;;;;;;;7.53;5.43;;;7.30;99.90;;;;;;10123322;29;20808;-81
2023/12/03 17:34:18;;;;;;;9.87;5.97;;;8.10;99.90;;;;;;10131063;29;20232;-81
2023/12/03 17:39:21;;;;;;;13.33;5.20;;;9.00;99.90;;;;;;10131449;29;20255;-81
2023/12/03 17:44:23;;;;;;;6.20;4.17;;;9.30;99.90;;;;;;10124866;29;21021;-81
2023/12/03 17:49:27;;;;;;;10.37;6.73;;;9.30;99.90;;;;;;10129445;29;20244;-81
2023/12/03 17:54:30;;;;;;;13.47;5.37;;;9.40;99.90;;;;;;10129920;29;20627;-80
2023/12/03 17:59:34;;;;;;;12.30;9.27;;;9.60;99.90;;;;;;10127971;29;20285;-81
2023/12/03 18:04:37;;;;;;;5.93;4.20;;;9.10;99.90;;;;;;10128905;29;20235;-82
2023/12/03 18:09:41;;;;;;;7.87;4.63;;;9.10;99.90;;;;;;10129533;29;20288;-81
2023/12/03 18:14:45;;;;;;;8.37;4.20;;;8.80;99.90;;;;;;10129012;29;20292;-81
2023/12/03 18:19:48;;;;;;;16.13;10.67;;;9.10;99.90;;;;;;10128055;29;20261;-81
2023/12/03 18:24:51;;;;;;;10.00;5.77;;;9.00;99.90;;;;;;10101597;29;20240;-81
2023/12/03 18:29:53;;;;;;;11.53;7.47;;;8.80;99.90;;;;;;10056697;29;20270;-81
2023/12/03 18:34:55;;;;;;;11.67;6.77;;;9.30;99.90;;;;;;10082554;29;20290;-81
2023/12/03 18:39:58;;;;;;;14.53;7.97;;;9.20;99.90;;;;;;10084454;29;20261;-81
2023/12/03 18:45:02;;;;;;;19.87;14.73;;;8.50;99.90;;;;;;10082836;29;20233;-81
2023/12/03 18:50:06;;;;;;;10.97;6.17;;;7.00;99.90;;;;;;10088022;29;20704;-81
2023/12/03 18:55:11;;;;;;;15.50;8.07;;;5.80;99.90;;;;;;10088893;29;20244;-81
2023/12/03 19:00:16;;;;;;;12.40;7.17;;;7.30;99.90;;;;;;10087781;29;20289;-80
2023/12/03 19:05:18;;;;;;;11.23;6.63;;;7.30;99.90;;;;;;10088842;29;20674;-80
2023/12/03 19:10:21;;;;;;;11.30;6.17;;;8.10;99.90;;;;;;10088094;29;20297;-80
2023/12/03 19:15:23;;;;;;;9.80;6.23;;;8.00;99.90;;;;;;10088997;29;20683;-81
2023/12/03 19:20:26;;;;;;;10.33;7.37;;;7.60;99.90;;;;;;10087278;29;20311;-80
2023/12/03 19:25:30;;;;;;;7.70;4.57;;;8.30;99.90;;;;;;10089061;29;20793;-80
2023/12/03 19:30:32;;;;;;;8.07;4.33;;;4.20;99.90;;;;;;10066556;29;20241;-80
2023/12/03 19:35:36;;;;;;;7.80;4.17;;;6.10;99.90;;;;;;10078241;29;20244;-82
2023/12/03 19:40:39;;;;;;;6.03;4.37;;;7.80;99.90;;;;;;10087695;29;20678;-81
2023/12/03 19:45:41;;;;;;;11.10;5.87;;;6.20;99.90;;;;;;10087834;29;20265;-81
2023/12/03 19:50:44;;;;;;;8.17;4.77;;;6.30;99.90;;;;;;10088188;29;20654;-80
2023/12/03 19:55:46;;;;;;;7.53;4.03;;;7.50;99.90;;;;;;10091816;29;20997;-80
2023/12/03 20:00:49;;;;;;;8.63;5.77;;;8.20;99.90;;;;;;10078724;29;20330;-80
2023/12/03 20:05:51;;;;;;;7.30;5.33;;;8.30;99.90;;;;;;10083772;29;21004;-79
2023/12/03 20:10:55;;;;;;;12.70;6.87;;;9.10;99.90;;;;;;10094276;29;20248;-80
2023/12/03 20:15:58;;;;;;;7.70;3.83;;;8.90;99.90;;;;;;10094019;29;20224;-80
2023/12/03 20:21:00;;;;;;;10.53;6.23;;;8.90;99.90;;;;;;10089399;29;20316;-80
2023/12/03 20:26:06;;;;;;;6.97;3.57;;;9.70;99.90;;;;;;10084415;29;20270;-80
2023/12/03 20:31:09;;;;;;;12.20;7.27;;;9.10;99.90;;;;;;10081632;29;20266;-81
2023/12/03 20:36:12;;;;;;;10.43;6.90;;;8.50;99.90;;;;;;10094301;29;20795;-80
2023/12/03 20:41:22;;;;;;;12.23;7.97;;;8.10;99.90;;;;;;10093817;29;20243;-80
2023/12/03 20:46:26;;;;;;;11.07;5.57;;;8.20;99.90;;;;;;10090537;29;20241;-80
2023/12/03 20:51:28;;;;;;;10.70;7.97;;;8.70;99.90;;;;;;10092165;29;20596;-80
2023/12/03 20:56:31;;;;;;;10.20;5.20;;;8.00;99.90;;;;;;10111185;29;20257;-80
2023/12/03 21:01:36;;;;;;;12.03;7.53;;;8.10;99.90;;;;;;10104241;29;20284;-80
2023/12/03 21:06:39;;;;;;;7.90;5.77;;;7.60;99.90;;;;;;10111105;29;20304;-80
2023/12/03 21:11:42;;;;;;;4.30;2.60;;;8.60;99.90;;;;;;10104286;29;20643;-80
2023/12/03 21:16:44;;;;;;;12.47;8.17;;;9.10;99.90;;;;;;10107076;29;20723;-80
2023/12/03 21:21:47;;;;;;;10.53;7.47;;;8.30;99.90;;;;;;10114293;29;20230;-81
2023/12/03 21:26:49;;;;;;;8.73;5.57;;;8.00;99.90;;;;;;10101837;29;20333;-80
2023/12/03 21:31:52;;;;;;;10.43;7.07;;;7.80;99.90;;;;;;10107153;29;20237;-80
2023/12/03 21:36:56;;;;;;;6.60;3.80;;;7.70;99.90;;;;;;10092653;29;20270;-80
2023/12/03 21:41:59;;;;;;;9.20;5.30;;;7.80;99.90;;;;;;10068636;29;20305;-79
2023/12/03 21:47:02;;;;;;;8.70;4.70;;;8.20;99.90;;;;;;10078802;29;20245;-79
2023/12/03 21:52:05;;;;;;;8.10;5.10;;;8.70;99.90;;;;;;10090854;29;20307;-80
2023/12/03 21:57:07;;;;;;;10.83;7.33;;;8.20;99.90;;;;;;10089726;29;20310;-80
2023/12/03 22:02:11;;;;;;;6.20;4.67;;;7.60;99.90;;;;;;10098100;29;20711;-80
2023/12/03 22:07:14;;;;;;;9.20;6.53;;;7.30;99.90;;;;;;10108703;29;20233;-80
2023/12/03 22:12:16;;;;;;;7.97;5.13;;;7.30;99.90;;;;;;10111302;29;20310;-80
2023/12/03 22:17:19;;;;;;;9.27;7.03;;;6.80;99.90;;;;;;10103912;29;20264;-80
2023/12/03 22:22:22;;;;;;;12.07;8.20;;;6.70;99.90;;;;;;10111651;29;20233;-80
2023/12/03 22:27:24;;;;;;;11.20;8.13;;;6.50;99.90;;;;;;10097041;29;20297;-79
2023/12/03 22:32:27;;;;;;;12.20;8.87;;;7.20;99.90;;;;;;10102201;29;20261;-80
2023/12/03 22:37:29;;;;;;;6.67;5.00;;;7.30;99.90;;;;;;10093621;29;20302;-80
2023/12/03 22:42:32;;;;;;;7.03;3.93;;;7.30;99.90;;;;;;10089564;29;20256;-80
2023/12/03 22:47:35;;;;;;;1.90;1.70;;;7.80;99.90;;;;;;10089988;29;20616;-80
2023/12/03 22:52:37;;;;;;;5.30;4.50;;;8.00;99.90;;;;;;10103736;29;20240;-80
2023/12/03 22:57:40;;;;;;;12.40;8.13;;;8.10;99.90;;;;;;10088994;29;20299;-80
2023/12/03 23:02:43;;;;;;;14.47;9.60;;;6.80;99.90;;;;;;10089355;29;20283;-80
2023/12/03 23:07:45;;;;;;;8.53;3.87;;;6.50;99.90;;;;;;10108299;29;20236;-80
2023/12/03 23:12:48;;;;;;;15.87;11.07;;;6.90;99.90;;;;;;10115067;29;20251;-81
2023/12/03 23:17:50;;;;;;;8.40;5.20;;;6.20;99.90;;;;;;10097639;29;20666;-80
2023/12/03 23:22:53;;;;;;;18.03;11.53;;;6.90;99.90;;;;;;10109003;29;20198;-80
2023/12/03 23:27:55;;;;;;;13.83;9.10;;;6.00;99.90;;;;;;10116359;29;20261;-81
2023/12/03 23:33:01;;;;;;;5.70;3.70;;;5.50;99.90;;;;;;10114271;29;20236;-81
2023/12/03 23:38:04;;;;;;;18.33;11.67;;;5.80;99.90;;;;;;10117143;29;20893;-80
2023/12/03 23:43:06;;;;;;;6.37;2.60;;;6.20;99.90;;;;;;10113516;29;20263;-80
2023/12/03 23:48:09;;;;;;;9.87;6.17;;;6.70;99.90;;;;;;10108186;29;20209;-81
2023/12/03 23:53:11;;;;;;;17.23;10.87;;;5.90;99.90;;;;;;10113286;29;20622;-81
2023/12/03 23:58:14;;;;;;;12.80;8.67;;;6.70;99.90;;;;;;10121078;29;20279;-81
